Time,TemperatureF,DewpointF,PressureIn,WindDirection,WindDirectionDegrees,WindSpeedMPH,WindSpeedGustMPH,Humidity,HourlyPrecipIn,Conditions,Clouds,dailyrainin,SoftwareType,DateUTC
2013-07-30 00:00:00,68.4,50.0,30.06,South,174,0.0,0.0,52,0.00,RA,,0.00,WeatherDisplay:10.37,2013-07-30 04:00:00,
2013-07-30 00:01:00,68.3,50.0,30.06,South,174,0.0,0.0,52,0.00,RA,,0.00,WeatherDisplay:10.37,2013-07-30 04:01:00,
2013-07-30 00:05:00,68.3,49.4,30.06,South,174,0.0,0.0,51,0.00,RA,,0.00,WeatherDisplay:10.37,2013-07-30 04:05:00,
2013-07-30 00:10:00,68.2,49.9,30.06,South,174,0.0,0.0,52,0.00,CLR,,0.00,WeatherDisplay:10.37,2013-07-30 04:10:00,
2013-07-30 00:15:00,68.0,49.7,30.05,South,174,0.0,0.0,52,0.00,CLR,,0.00,WeatherDisplay:10.37,2013-07-30 04:15:00,
2013-07-30 00:20:00,68.0,50.2,30.05,South,174,0.0,0.0,53,0.00,CLR,,0.00,WeatherDisplay:10.37,2013-07-30 04:20:00,
2013-07-30 00:30:00,67.7,49.4,30.05,South,174,0.0,0.0,52,0.00,CLR,,0.00,WeatherDisplay:10.37,2013-07-30 04:30:00,
2013-07-30 00:40:00,67.4,49.1,30.05,South,174,0.0,0.0,52,0.00,CLR,,0.00,WeatherDisplay:10.37,2013-07-30 04:40:00,
2013-07-30 00:50:00,66.9,48.2,30.06,South,174,0.0,0.0,51,0.00,CLR,,0.00,WeatherDisplay:10.37,2013-07-30 04:50:00,
2013-07-30 01:00:00,66.8,45.3,30.05,WNW,303,0.0,0.0,46,0.00,CLR,,0.00,WeatherDisplay:10.37,2013-07-30 05:00:00,
2013-07-30 01:05:00,66.9,45.4,30.06,NW,309,0.0,0.0,46,0.00,CLR,,0.00,WeatherDisplay:10.37,2013-07-30 05:05:00,
2013-07-30 01:10:00,66.9,44.9,30.06,NW,309,0.0,0.0,45,0.00,CLR,,0.00,WeatherDisplay:10.37,2013-07-30 05:10:00,
2013-07-30 01:20:00,67.0,44.3,30.06,NW,309,0.0,0.0,44,0.00,CLR,,0.00,WeatherDisplay:10.37,2013-07-30 05:20:00,
2013-07-30 01:30:00,66.7,44.7,30.06,NE,42,0.0,0.0,45,0.00,CLR,,0.00,WeatherDisplay:10.37,2013-07-30 05:30:00,
2013-07-30 01:40:00,66.6,44.6,30.05,NE,45,0.0,7.0,45,0.00,CLR,,0.00,WeatherDisplay:10.37,2013-07-30 05:40:00,
2013-07-30 01:50:00,66.5,44.5,30.06,NE,41,0.0,0.0,45,0.00,CLR,,0.00,WeatherDisplay:10.37,2013-07-30 05:50:00,
2013-07-30 02:00:00,66.2,45.4,30.06,NE,41,0.0,0.0,47,0.00,CLR,,0.00,WeatherDisplay:10.37,2013-07-30 06:00:00,
2013-07-30 02:05:00,66.0,45.8,30.06,NE,41,0.0,0.0,48,0.00,CLR,,0.00,WeatherDisplay:10.37,2013-07-30 06:05:00,
2013-07-30 02:10:00,65.9,46.7,30.06,NE,41,0.0,0.0,50,0.00,CLR,,0.00,WeatherDisplay:10.37,2013-07-30 06:10:00,
2013-07-30 02:20:00,65.7,46.6,30.06,NE,41,0.0,0.0,50,0.00,CLR,,0.00,WeatherDisplay:10.37,2013-07-30 06:20:00,
2013-07-30 02:30:00,65.3,46.7,30.06,NE,41,0.0,0.0,51,0.00,CLR,,0.00,WeatherDisplay:10.37,2013-07-30 06:30:00,
2013-07-30 02:40:00,65.0,46.4,30.06,NE,41,0.0,0.0,51,0.01,RA,,0.01,WeatherDisplay:10.37,2013-07-30 06:40:00,
2013-07-30 02:50:00,64.7,46.6,30.05,NE,41,0.0,0.0,52,0.01,CLR,,0.01,WeatherDisplay:10.37,2013-07-30 06:50:00,
2013-07-30 03:00:00,64.0,46.5,30.05,NE,41,0.0,0.0,53,0.01,CLR,,0.01,WeatherDisplay:10.37,2013-07-30 07:00:00,
2013-07-30 03:05:00,63.8,46.3,30.05,NE,41,0.0,0.0,53,0.01,CLR,,0.01,WeatherDisplay:10.37,2013-07-30 07:05:00,
2013-07-30 03:10:00,63.7,46.7,30.05,NE,41,0.0,0.0,54,0.01,CLR,,0.01,WeatherDisplay:10.37,2013-07-30 07:10:00,
2013-07-30 03:20:00,63.3,46.4,30.05,NE,41,0.0,0.0,54,0.01,CLR,,0.01,WeatherDisplay:10.37,2013-07-30 07:20:00,
2013-07-30 03:30:00,63.1,46.6,30.05,NE,41,0.0,0.0,55,0.01,CLR,,0.01,WeatherDisplay:10.37,2013-07-30 07:30:00,
2013-07-30 03:40:00,63.0,46.6,30.05,NE,41,0.0,0.0,55,0.00,CLR,,0.01,WeatherDisplay:10.37,2013-07-30 07:40:00,
2013-07-30 03:50:00,62.8,46.4,30.05,NE,41,0.0,0.0,55,0.00,CLR,,0.01,WeatherDisplay:10.37,2013-07-30 07:50:00,
2013-07-30 04:00:00,62.6,47.1,30.06,NE,41,0.0,0.0,57,0.00,CLR,,0.01,WeatherDisplay:10.37,2013-07-30 08:00:00,
2013-07-30 04:05:00,62.4,46.5,30.06,NE,41,0.0,0.0,56,0.00,CLR,,0.01,WeatherDisplay:10.37,2013-07-30 08:05:00,
2013-07-30 04:10:00,62.3,47.3,30.06,NE,41,0.0,0.0,58,0.00,CLR,,0.01,WeatherDisplay:10.37,2013-07-30 08:10:00,
2013-07-30 04:20:00,61.9,47.4,30.07,NE,41,0.0,0.0,59,0.00,CLR,,0.01,WeatherDisplay:10.37,2013-07-30 08:20:00,
2013-07-30 04:30:00,61.6,47.1,30.07,NE,41,0.0,0.0,59,0.00,CLR,,0.01,WeatherDisplay:10.37,2013-07-30 08:30:00,
2013-07-30 04:40:00,61.1,47.1,30.07,NE,41,0.0,0.0,60,0.00,CLR,,0.01,WeatherDisplay:10.37,2013-07-30 08:40:00,
2013-07-30 04:50:00,60.7,47.1,30.07,NE,41,0.0,0.0,61,0.00,CLR,,0.01,WeatherDisplay:10.37,2013-07-30 08:50:00,
2013-07-30 05:00:00,60.4,47.3,30.07,NE,41,0.0,0.0,62,0.00,CLR,,0.01,WeatherDisplay:10.37,2013-07-30 09:00:00,
2013-07-30 05:05:00,60.2,47.1,30.07,NE,41,0.0,0.0,62,0.00,CLR,,0.01,WeatherDisplay:10.37,2013-07-30 09:05:00,
2013-07-30 05:10:00,60.0,47.3,30.08,NE,41,0.0,0.0,63,0.00,CLR,,0.01,WeatherDisplay:10.37,2013-07-30 09:10:00,
2013-07-30 05:20:00,59.7,47.0,30.08,NE,41,0.0,0.0,63,0.00,CLR,,0.01,WeatherDisplay:10.37,2013-07-30 09:20:00,
2013-07-30 05:30:00,59.2,47.4,30.08,NE,41,0.0,0.0,65,0.00,CLR,,0.01,WeatherDisplay:10.37,2013-07-30 09:30:00,
2013-07-30 05:40:00,58.9,47.5,30.08,NE,41,0.0,0.0,66,0.00,CLR,,0.01,WeatherDisplay:10.37,2013-07-30 09:40:00,
2013-07-30 05:50:00,58.8,47.4,30.08,NE,41,0.0,0.0,66,0.00,CLR,,0.01,WeatherDisplay:10.37,2013-07-30 09:50:00,
2013-07-30 06:00:00,58.7,47.3,30.08,NE,41,0.0,0.0,66,0.00,CLR,,0.01,WeatherDisplay:10.37,2013-07-30 10:00:00,
2013-07-30 06:05:00,58.5,47.2,30.08,NE,41,0.0,0.0,66,0.00,CLR,,0.01,WeatherDisplay:10.37,2013-07-30 10:05:00,
2013-07-30 06:10:00,58.5,47.5,30.08,NE,41,0.0,0.0,67,0.00,CLR,,0.01,WeatherDisplay:10.37,2013-07-30 10:10:00,
2013-07-30 06:20:00,58.5,47.5,30.09,NE,41,0.0,0.0,67,0.00,CLR,,0.01,WeatherDisplay:10.37,2013-07-30 10:20:00,
2013-07-30 06:30:00,58.4,47.5,30.09,NE,41,0.0,0.0,67,0.00,CLR,,0.01,WeatherDisplay:10.37,2013-07-30 10:30:00,
2013-07-30 06:40:00,58.4,47.8,30.09,NE,41,0.0,0.0,68,0.00,CLR,,0.01,WeatherDisplay:10.37,2013-07-30 10:40:00,
2013-07-30 06:50:00,58.4,47.9,30.08,NE,41,0.0,0.0,68,0.00,CLR,,0.01,WeatherDisplay:10.37,2013-07-30 10:50:00,
2013-07-30 07:00:00,58.7,48.2,30.09,NE,41,0.0,0.0,68,0.00,CLR,,0.01,WeatherDisplay:10.37,2013-07-30 11:00:00,
2013-07-30 07:05:00,58.8,48.3,30.09,NE,41,0.0,0.0,68,0.00,CLR,,0.01,WeatherDisplay:10.37,2013-07-30 11:05:00,
2013-07-30 07:10:00,59.0,48.8,30.09,NE,41,0.0,0.0,69,0.00,CLR,,0.01,WeatherDisplay:10.37,2013-07-30 11:10:00,
2013-07-30 07:20:00,59.3,49.2,30.09,NE,41,0.0,0.0,69,0.00,CLR,,0.01,WeatherDisplay:10.37,2013-07-30 11:20:00,
2013-07-30 07:30:00,59.8,49.6,30.09,NE,41,0.0,0.0,69,0.00,CLR,,0.01,WeatherDisplay:10.37,2013-07-30 11:30:00,
2013-07-30 07:40:00,60.3,50.1,30.09,NE,41,0.0,0.0,69,0.00,CLR,,0.01,WeatherDisplay:10.37,2013-07-30 11:40:00,
2013-07-30 07:50:00,60.9,50.6,30.09,NE,41,0.0,0.0,69,0.00,CLR,,0.01,WeatherDisplay:10.37,2013-07-30 11:50:00,
2013-07-30 08:00:00,61.5,50.8,30.09,NE,41,0.0,0.0,68,0.00,CLR,,0.01,WeatherDisplay:10.37,2013-07-30 12:00:00,
2013-07-30 08:05:00,61.8,51.1,30.09,NE,41,0.0,0.0,68,0.00,CLR,,0.01,WeatherDisplay:10.37,2013-07-30 12:05:00,
2013-07-30 08:10:00,62.1,51.0,30.10,NE,41,0.0,0.0,67,0.00,CLR,,0.01,WeatherDisplay:10.37,2013-07-30 12:10:00,
2013-07-30 08:20:00,62.7,50.3,30.10,NE,41,0.0,0.0,64,0.00,CLR,,0.01,WeatherDisplay:10.37,2013-07-30 12:20:00,
2013-07-30 08:30:00,63.5,51.1,30.10,NE,41,0.0,0.0,64,0.00,CLR,,0.01,WeatherDisplay:10.37,2013-07-30 12:30:00,
2013-07-30 08:40:00,64.1,50.9,30.10,NE,41,0.0,3.0,62,0.00,CLR,,0.01,WeatherDisplay:10.37,2013-07-30 12:40:00,
2013-07-30 08:50:00,64.8,50.6,30.10,SSE,160,1.0,3.0,60,0.00,CLR,,0.01,WeatherDisplay:10.37,2013-07-30 12:50:00,
2013-07-30 09:00:00,65.6,50.0,30.10,SSW,198,0.0,11.0,57,0.00,CLR,,0.01,WeatherDisplay:10.37,2013-07-30 13:00:00,
2013-07-30 09:05:00,65.9,49.3,30.10,SSW,200,0.0,3.0,55,0.00,CLR,,0.01,WeatherDisplay:10.37,2013-07-30 13:05:00,
2013-07-30 09:10:00,66.2,48.5,30.10,West,269,2.0,10.0,53,0.00,CLR,,0.01,WeatherDisplay:10.37,2013-07-30 13:10:00,
2013-07-30 09:20:00,66.8,48.1,30.10,West,269,1.0,5.0,51,0.00,CLR,,0.01,WeatherDisplay:10.37,2013-07-30 13:20:00,
2013-07-30 09:30:00,67.3,48.0,30.10,NW,306,1.0,9.0,50,0.00,CLR,,0.01,WeatherDisplay:10.37,2013-07-30 13:30:00,
2013-07-30 09:40:00,67.9,48.0,30.10,WNW,285,2.0,7.0,49,0.00,CLR,,0.01,WeatherDisplay:10.37,2013-07-30 13:40:00,
2013-07-30 09:50:00,68.4,47.4,30.10,NW,305,1.0,6.0,47,0.00,CLR,,0.01,WeatherDisplay:10.37,2013-07-30 13:50:00,
2013-07-30 10:00:00,69.0,46.7,30.10,WNW,287,0.0,7.0,45,0.00,CLR,,0.01,WeatherDisplay:10.37,2013-07-30 14:00:00,
2013-07-30 10:05:00,69.4,47.1,30.11,WSW,249,0.0,5.0,45,0.00,CLR,,0.01,WeatherDisplay:10.37,2013-07-30 14:05:00,
2013-07-30 10:10:00,69.5,47.8,30.11,SSW,200,2.0,8.0,46,0.00,CLR,,0.01,WeatherDisplay:10.37,2013-07-30 14:10:00,
2013-07-30 10:20:00,69.4,47.7,30.11,SSW,200,0.0,7.0,46,0.00,CLR,,0.01,WeatherDisplay:10.37,2013-07-30 14:20:00,
2013-07-30 10:30:00,69.7,48.0,30.11,SW,229,0.0,0.0,46,0.00,CLR,,0.01,WeatherDisplay:10.37,2013-07-30 14:30:00,
2013-07-30 10:40:00,70.0,48.2,30.11,SW,221,1.0,5.0,46,0.00,CLR,,0.01,WeatherDisplay:10.37,2013-07-30 14:40:00,
2013-07-30 10:50:00,70.3,48.6,30.10,South,182,0.0,0.0,46,0.00,CLR,,0.01,WeatherDisplay:10.37,2013-07-30 14:50:00,
2013-07-30 11:00:00,70.7,48.3,30.10,South,184,1.0,8.0,45,0.00,CLR,,0.01,WeatherDisplay:10.37,2013-07-30 15:00:00,
2013-07-30 11:05:00,70.8,47.8,30.10,SW,234,2.0,7.0,44,0.00,CLR,,0.01,WeatherDisplay:10.37,2013-07-30 15:05:00,
2013-07-30 11:10:00,71.2,47.5,30.10,West,275,0.0,3.0,43,0.00,CLR,,0.01,WeatherDisplay:10.37,2013-07-30 15:10:00,
2013-07-30 11:20:00,72.1,48.4,30.10,WNW,291,0.0,5.0,43,0.00,CLR,,0.01,WeatherDisplay:10.37,2013-07-30 15:20:00,
2013-07-30 11:30:00,72.0,48.3,30.10,SSE,163,0.0,0.0,43,0.00,CLR,,0.01,WeatherDisplay:10.37,2013-07-30 15:30:00,
2013-07-30 11:40:00,72.1,48.9,30.09,SSE,162,0.0,3.0,44,0.00,CLR,,0.01,WeatherDisplay:10.37,2013-07-30 15:40:00,
2013-07-30 11:50:00,72.0,48.9,30.09,SSW,198,0.0,3.0,44,0.00,CLR,,0.01,WeatherDisplay:10.37,2013-07-30 15:50:00,
2013-07-30 12:00:00,72.5,46.8,30.09,WSW,248,1.0,7.0,40,0.00,CLR,,0.01,WeatherDisplay:10.37,2013-07-30 16:00:00,
2013-07-30 12:05:00,72.9,47.2,30.09,WSW,257,0.0,6.0,40,0.00,CLR,,0.01,WeatherDisplay:10.37,2013-07-30 16:05:00,
2013-07-30 12:10:00,73.7,46.5,30.09,SW,236,0.0,6.0,38,0.00,CLR,,0.01,WeatherDisplay:10.37,2013-07-30 16:10:00,
2013-07-30 12:20:00,73.9,46.7,30.09,WSW,245,0.0,2.0,38,0.00,CLR,,0.01,WeatherDisplay:10.37,2013-07-30 16:20:00,
2013-07-30 12:30:00,73.9,47.4,30.09,WSW,244,0.0,0.0,39,0.00,CLR,,0.01,WeatherDisplay:10.37,2013-07-30 16:30:00,
2013-07-30 12:40:00,74.6,45.1,30.09,WSW,248,1.0,6.0,35,0.00,CLR,,0.01,WeatherDisplay:10.37,2013-07-30 16:40:00,
2013-07-30 12:50:00,74.8,45.3,30.09,NNW,331,0.0,2.0,35,0.00,CLR,,0.01,WeatherDisplay:10.37,2013-07-30 16:50:00,
2013-07-30 13:00:00,74.9,45.4,30.09,WNW,286,6.0,9.0,35,0.00,CLR,,0.01,WeatherDisplay:10.37,2013-07-30 17:00:00,
2013-07-30 13:05:00,74.8,44.5,30.09,West,275,1.0,10.0,34,0.00,CLR,,0.01,WeatherDisplay:10.37,2013-07-30 17:05:00,
2013-07-30 13:10:00,74.6,45.9,30.09,West,278,0.0,8.0,36,0.00,CLR,,0.01,WeatherDisplay:10.37,2013-07-30 17:10:00,
2013-07-30 13:20:00,75.4,45.1,30.09,West,274,3.0,9.0,34,0.00,CLR,,0.01,WeatherDisplay:10.37,2013-07-30 17:20:00,
2013-07-30 13:30:00,75.5,45.1,30.09,WNW,287,0.0,9.0,34,0.00,CLR,,0.01,WeatherDisplay:10.37,2013-07-30 17:30:00,
2013-07-30 13:40:00,75.6,43.7,30.09,WSW,254,1.0,9.0,32,0.00,CLR,,0.01,WeatherDisplay:10.37,2013-07-30 17:40:00,
2013-07-30 13:50:00,76.3,45.1,30.09,West,271,2.0,7.0,33,0.00,CLR,,0.01,WeatherDisplay:10.37,2013-07-30 17:50:00,
2013-07-30 14:00:00,76.8,44.7,30.09,West,262,1.0,6.0,32,0.00,CLR,,0.01,WeatherDisplay:10.37,2013-07-30 18:00:00,
2013-07-30 14:05:00,76.4,45.2,30.09,SW,234,0.0,9.0,33,0.00,CLR,,0.01,WeatherDisplay:10.37,2013-07-30 18:05:00,
2013-07-30 14:10:00,76.5,46.0,30.08,WSW,245,0.0,0.0,34,0.00,CLR,,0.01,WeatherDisplay:10.37,2013-07-30 18:10:00,
2013-07-30 14:20:00,77.7,44.6,30.08,WSW,243,1.0,7.0,31,0.00,CLR,,0.01,WeatherDisplay:10.37,2013-07-30 18:20:00,
2013-07-30 14:30:00,78.1,45.0,30.08,WSW,254,2.0,9.0,31,0.00,CLR,,0.01,WeatherDisplay:10.37,2013-07-30 18:30:00,
2013-07-30 14:40:00,78.9,45.7,30.08,SW,219,0.0,0.0,31,0.00,CLR,,0.01,WeatherDisplay:10.37,2013-07-30 18:40:00,
2013-07-30 14:50:00,79.8,42.9,30.07,SW,214,0.0,8.0,27,0.00,CLR,,0.01,WeatherDisplay:10.37,2013-07-30 18:50:00,
2013-07-30 15:00:00,80.1,44.0,30.06,South,183,1.0,8.0,28,0.00,CLR,,0.01,WeatherDisplay:10.37,2013-07-30 19:00:00,
2013-07-30 15:05:00,80.2,42.2,30.06,SSW,198,1.0,8.0,26,0.00,CLR,,0.01,WeatherDisplay:10.37,2013-07-30 19:05:00,
2013-07-30 15:10:00,80.5,43.5,30.06,SSW,212,0.0,6.0,27,0.00,CLR,,0.01,WeatherDisplay:10.37,2013-07-30 19:10:00,
2013-07-30 15:20:00,80.1,40.0,30.05,WSW,249,1.0,13.0,24,0.00,CLR,,0.01,WeatherDisplay:10.37,2013-07-30 19:20:00,
2013-07-30 15:30:00,80.9,41.8,30.05,SSW,212,0.0,7.0,25,0.00,CLR,,0.01,WeatherDisplay:10.37,2013-07-30 19:30:00,
2013-07-30 15:40:00,81.3,41.0,30.05,SW,224,0.0,6.0,24,0.00,CLR,,0.01,WeatherDisplay:10.37,2013-07-30 19:40:00,
2013-07-30 15:50:00,82.1,43.8,30.05,West,271,0.0,2.0,26,0.00,CLR,,0.01,WeatherDisplay:10.37,2013-07-30 19:50:00,
2013-07-30 16:00:00,81.8,39.2,30.05,West,274,0.0,1.0,22,0.00,CLR,,0.01,WeatherDisplay:10.37,2013-07-30 20:00:00,
2013-07-30 16:05:00,81.7,39.1,30.05,West,277,0.0,0.0,22,0.00,CLR,,0.01,WeatherDisplay:10.37,2013-07-30 20:05:00,
2013-07-30 16:10:00,81.5,41.2,30.05,West,263,1.0,6.0,24,0.00,CLR,,0.01,WeatherDisplay:10.37,2013-07-30 20:10:00,
2013-07-30 16:20:00,82.3,39.6,30.05,SW,218,3.0,10.0,22,0.00,CLR,,0.01,WeatherDisplay:10.37,2013-07-30 20:20:00,
2013-07-30 16:30:00,82.9,40.2,30.04,SSW,195,1.0,6.0,22,0.00,CLR,,0.01,WeatherDisplay:10.37,2013-07-30 20:30:00,
2013-07-30 16:40:00,83.8,39.7,30.04,SW,214,2.0,8.0,21,0.00,CLR,,0.01,WeatherDisplay:10.37,2013-07-30 20:40:00,
2013-07-30 16:50:00,84.0,38.6,30.04,WSW,246,0.0,7.0,20,0.00,CLR,,0.01,WeatherDisplay:10.37,2013-07-30 20:50:00,
2013-07-30 17:00:00,83.9,39.8,30.04,SW,228,0.0,10.0,21,0.00,CLR,,0.01,WeatherDisplay:10.37,2013-07-30 21:00:00,
2013-07-30 17:05:00,83.6,40.7,30.04,SW,227,0.0,3.0,22,0.00,CLR,,0.01,WeatherDisplay:10.37,2013-07-30 21:05:00,
2013-07-30 17:10:00,83.9,38.5,30.04,SSW,212,0.0,2.0,20,0.00,CLR,,0.01,WeatherDisplay:10.37,2013-07-30 21:10:00,
2013-07-30 17:20:00,84.9,41.8,30.04,SSW,203,0.0,0.0,22,0.00,CLR,,0.01,WeatherDisplay:10.37,2013-07-30 21:20:00,
2013-07-30 17:30:00,85.0,38.1,30.04,West,261,0.0,9.0,19,0.00,CLR,,0.01,WeatherDisplay:10.37,2013-07-30 21:30:00,
2013-07-30 17:40:00,84.8,37.9,30.04,SW,227,0.0,0.0,19,0.00,CLR,,0.01,WeatherDisplay:10.37,2013-07-30 21:40:00,
2013-07-30 17:50:00,84.9,39.3,30.05,SW,219,0.0,3.0,20,0.00,CLR,,0.01,WeatherDisplay:10.37,2013-07-30 21:50:00,
2013-07-30 18:00:00,84.7,39.2,30.05,SW,229,0.0,5.0,20,0.00,CLR,,0.01,WeatherDisplay:10.37,2013-07-30 22:00:00,
2013-07-30 18:05:00,84.6,39.1,30.05,SW,230,0.0,4.0,20,0.00,CLR,,0.01,WeatherDisplay:10.37,2013-07-30 22:05:00,
2013-07-30 18:10:00,84.8,40.5,30.05,SSW,211,2.0,6.0,21,0.00,CLR,,0.01,WeatherDisplay:10.37,2013-07-30 22:10:00,
2013-07-30 18:20:00,84.5,40.3,30.06,West,260,0.0,3.0,21,0.00,CLR,,0.01,WeatherDisplay:10.37,2013-07-30 22:20:00,
2013-07-30 18:30:00,84.6,41.5,30.06,West,280,0.0,0.0,22,0.00,CLR,,0.01,WeatherDisplay:10.37,2013-07-30 22:30:00,
2013-07-30 18:40:00,83.4,42.8,30.06,WSW,248,0.0,3.0,24,0.00,CLR,,0.01,WeatherDisplay:10.37,2013-07-30 22:40:00,
2013-07-30 18:50:00,81.5,44.3,30.06,SW,229,0.0,0.0,27,0.00,CLR,,0.01,WeatherDisplay:10.37,2013-07-30 22:50:00,
2013-07-30 19:00:00,80.0,45.8,30.06,SW,229,0.0,0.0,30,0.00,CLR,,0.01,WeatherDisplay:10.37,2013-07-30 23:00:00,
2013-07-30 19:05:00,79.3,46.1,30.06,SW,229,0.0,0.0,31,0.00,CLR,,0.01,WeatherDisplay:10.37,2013-07-30 23:05:00,
2013-07-30 19:10:00,78.8,47.3,30.06,SW,229,0.0,0.0,33,0.00,CLR,,0.01,WeatherDisplay:10.37,2013-07-30 23:10:00,
2013-07-30 19:20:00,77.9,48.8,30.07,SW,229,0.0,0.0,36,0.00,CLR,,0.01,WeatherDisplay:10.37,2013-07-30 23:20:00,
2013-07-30 19:30:00,77.1,48.1,30.07,SW,231,0.0,3.0,36,0.00,CLR,,0.01,WeatherDisplay:10.37,2013-07-30 23:30:00,
2013-07-30 19:40:00,76.4,48.9,30.08,SW,236,0.0,0.0,38,0.00,CLR,,0.01,WeatherDisplay:10.37,2013-07-30 23:40:00,
2013-07-30 19:50:00,75.3,48.6,30.08,SW,236,0.0,0.0,39,0.00,CLR,,0.01,WeatherDisplay:10.37,2013-07-30 23:50:00,
2013-07-30 20:00:00,74.5,49.2,30.08,SW,236,0.0,0.0,41,0.00,CLR,,0.01,WeatherDisplay:10.37,2013-07-31 00:00:00,
2013-07-30 20:05:00,74.2,49.6,30.08,SW,236,0.0,0.0,42,0.00,CLR,,0.01,WeatherDisplay:10.37,2013-07-31 00:05:00,
2013-07-30 20:10:00,73.8,49.3,30.08,SW,236,0.0,0.0,42,0.00,CLR,,0.01,WeatherDisplay:10.37,2013-07-31 00:10:00,
2013-07-30 20:20:00,73.3,49.4,30.08,SW,236,0.0,0.0,43,0.00,CLR,,0.01,WeatherDisplay:10.37,2013-07-31 00:20:00,
2013-07-30 20:30:00,72.5,50.0,30.08,SW,236,0.0,0.0,45,0.00,CLR,,0.01,WeatherDisplay:10.37,2013-07-31 00:30:00,
2013-07-30 20:36:00,72.0,50.1,30.08,SW,236,0.0,0.0,46,0.00,CLR,,0.01,WeatherDisplay:10.37,2013-07-31 00:36:00,
2013-07-30 20:45:00,71.7,50.4,30.08,SW,236,0.0,0.0,47,0.00,CLR,,0.01,WeatherDisplay:10.37,2013-07-31 00:45:00,
2013-07-30 20:50:00,71.6,50.3,30.08,SW,236,0.0,0.0,47,0.00,CLR,,0.01,WeatherDisplay:10.37,2013-07-31 00:50:00,
2013-07-30 21:00:00,71.3,50.6,30.09,SW,236,0.0,0.0,48,0.00,CLR,,0.01,WeatherDisplay:10.37,2013-07-31 01:00:00,
2013-07-30 21:05:00,71.2,50.5,30.09,SW,236,0.0,0.0,48,0.00,CLR,,0.01,WeatherDisplay:10.37,2013-07-31 01:05:00,
2013-07-30 21:10:00,71.0,50.3,30.09,SW,236,0.0,0.0,48,0.00,CLR,,0.01,WeatherDisplay:10.37,2013-07-31 01:10:00,
2013-07-30 21:20:00,70.8,51.2,30.09,SW,236,0.0,0.0,50,0.00,CLR,,0.01,WeatherDisplay:10.37,2013-07-31 01:20:00,
2013-07-30 21:30:00,70.5,51.0,30.09,SW,236,0.0,0.0,50,0.00,CLR,,0.01,WeatherDisplay:10.37,2013-07-31 01:30:00,
2013-07-30 21:40:00,70.2,51.2,30.09,SW,236,0.0,0.0,51,0.00,CLR,,0.01,WeatherDisplay:10.37,2013-07-31 01:40:00,
2013-07-30 21:50:00,69.9,51.4,30.09,SW,236,0.0,0.0,52,0.00,CLR,,0.01,WeatherDisplay:10.37,2013-07-31 01:50:00,
2013-07-30 22:00:00,69.5,51.6,30.09,SW,236,0.0,0.0,53,0.00,CLR,,0.01,WeatherDisplay:10.37,2013-07-31 02:00:00,
2013-07-30 22:05:00,69.4,51.5,30.09,SW,236,0.0,0.0,53,0.00,CLR,,0.01,WeatherDisplay:10.37,2013-07-31 02:05:00,
2013-07-30 22:10:00,69.3,51.4,30.09,SW,236,0.0,0.0,53,0.00,CLR,,0.01,WeatherDisplay:10.37,2013-07-31 02:10:00,
2013-07-30 22:20:00,69.0,51.6,30.09,SW,236,0.0,0.0,54,0.00,CLR,,0.01,WeatherDisplay:10.37,2013-07-31 02:20:00,
2013-07-30 22:30:00,68.6,51.3,30.09,SW,236,0.0,0.0,54,0.00,CLR,,0.01,WeatherDisplay:10.37,2013-07-31 02:30:00,
2013-07-30 22:40:00,68.2,51.4,30.10,SW,236,0.0,0.0,55,0.00,CLR,,0.01,WeatherDisplay:10.37,2013-07-31 02:40:00,
2013-07-30 22:50:00,67.8,51.5,30.09,SW,236,0.0,0.0,56,0.00,CLR,,0.01,WeatherDisplay:10.37,2013-07-31 02:50:00,
2013-07-30 23:00:00,67.2,51.0,30.10,SW,236,0.0,0.0,56,0.00,CLR,,0.01,WeatherDisplay:10.37,2013-07-31 03:00:00,
2013-07-30 23:05:00,66.9,51.2,30.10,SW,236,0.0,0.0,57,0.00,CLR,,0.01,WeatherDisplay:10.37,2013-07-31 03:05:00,
2013-07-30 23:10:00,66.9,51.2,30.10,SW,236,0.0,0.0,57,0.00,CLR,,0.01,WeatherDisplay:10.37,2013-07-31 03:10:00,
2013-07-30 23:20:00,66.6,51.3,30.10,SW,236,0.0,0.0,58,0.00,CLR,,0.01,WeatherDisplay:10.37,2013-07-31 03:20:00,
2013-07-30 23:30:00,66.2,51.0,30.09,SW,236,0.0,0.0,58,0.00,CLR,,0.01,WeatherDisplay:10.37,2013-07-31 03:30:00,
2013-07-30 23:40:00,66.0,51.2,30.09,SW,236,0.0,0.0,59,0.00,CLR,,0.01,WeatherDisplay:10.37,2013-07-31 03:40:00,
2013-07-30 23:50:00,65.6,50.9,30.09,SW,236,0.0,0.0,59,0.00,CLR,,0.02,WeatherDisplay:10.37,2013-07-31 03:50:00,